Danville, Alabama
Current Conditions -  °F | °C
As of 2:55 AM on Saturday 22 Nov 2014 (Local Time) from KCMD Reporting Station
Clear Clear  
Wind Chill: 39°   Ceiling: Unl
Heat Index: 43°   Visibility: 10mi
Dew Point: 28°   Wind: 7mph
Humidity: 56%   Direction: 110°ESE
Pressure: 30.39"   Gusts: NA
Location:  34.41°N, 87.08°W
Report Text: KCMD 220855Z AUTO 11006KT 10SM CLR 06/M02 A3039 RMK AO2 T00621021
Loading
Personal Weather Stations






























Interactive Weather Map New forecast layout! Learn more

10-Day Weather Forecast

Advertisements
Track Severe Weather on mobile